Time;durP1;ratioP1;P1;durP2;ratioP2;P2;SDS_P1;SDS_P2;PMS_P1;PMS_P2;Temp;Humidity;BMP_temperature;BMP_pressure;BME280_temperature;BME280_humidity;BME280_pressure;Samples;Min_cycle;Max_cycle;Signal;HPM_P1;HPM_P2
2022/02/13 00:01:41;;;;;;;;;;;7.10;99.90;;;;;;5054430;28;19913;-79
2022/02/13 00:04:07;;;;;;;;;;;7.10;99.90;;;;;;5054217;28;19919;-80
2022/02/13 00:06:32;;;;;;;;;;;7.20;99.90;;;;;;5054101;28;19924;-80
2022/02/13 00:08:58;;;;;;;;;;;7.20;99.90;;;;;;5054010;28;20396;-80
2022/02/13 00:11:23;;;;;;;;;;;7.10;99.90;;;;;;5053965;28;19954;-80
2022/02/13 00:13:49;;;;;;;;;;;7.10;99.90;;;;;;5054145;28;19909;-80
2022/02/13 00:16:16;;;;;;;;;;;7.20;99.90;;;;;;5053694;28;19947;-79
2022/02/13 00:18:41;;;;;;;;;;;7.10;99.90;;;;;;5053896;28;20388;-80
2022/02/13 00:21:07;;;;;;;;;;;7.20;99.90;;;;;;5036009;28;19913;-80
2022/02/13 00:23:33;;;;;;;;;;;7.20;99.90;;;;;;5035773;28;19919;-80
2022/02/13 00:25:58;;;;;;;;;;;7.20;99.90;;;;;;5053775;28;19955;-80
2022/02/13 00:28:24;;;;;;;;;;;7.10;99.90;;;;;;5035914;28;20265;-80
2022/02/13 00:30:49;;;;;;;;;;;7.20;99.90;;;;;;5053761;28;19909;-79
2022/02/13 00:33:16;;;;;;;;;;;7.30;99.90;;;;;;5053648;28;19909;-80
2022/02/13 00:35:41;;;;;;;;;;;7.20;99.90;;;;;;5035716;28;19917;-79
2022/02/13 00:38:08;;;;;;;;;;;7.30;99.90;;;;;;5053858;28;19936;-80
2022/02/13 00:40:33;;;;;;;;;;;7.20;99.90;;;;;;5053590;28;19919;-80
2022/02/13 00:42:59;;;;;;;;;;;7.10;99.90;;;;;;5053502;28;19920;-80
2022/02/13 00:45:26;;;;;;;;;;;7.10;99.90;;;;;;5053733;28;19909;-79
2022/02/13 00:47:51;;;;;;;;;;;7.20;99.90;;;;;;5053658;28;19912;-79
2022/02/13 00:50:17;;;;;;;;;;;7.10;99.90;;;;;;5053585;28;20280;-79
2022/02/13 00:52:43;;;;;;;;;;;7.10;99.90;;;;;;5053617;28;19958;-80
2022/02/13 00:55:08;;;;;;;;;;;7.20;99.90;;;;;;5053439;28;20274;-80
2022/02/13 00:57:34;;;;;;;;;;;7.20;99.90;;;;;;5053514;28;20377;-80
2022/02/13 00:59:59;;;;;;;;;;;7.20;99.90;;;;;;5053582;28;19908;-79
2022/02/13 01:02:25;;;;;;;;;;;7.30;99.90;;;;;;5053620;28;19913;-79
2022/02/13 01:04:51;;;;;;;;;;;7.30;99.90;;;;;;5053408;28;19913;-81
2022/02/13 01:07:16;;;;;;;;;;;7.20;99.90;;;;;;5035457;28;20380;-80
2022/02/13 01:09:42;;;;;;;;;;;7.30;99.90;;;;;;5053354;28;19909;-79
2022/02/13 01:12:08;;;;;;;;;;;7.30;99.90;;;;;;5035447;28;19915;-79
2022/02/13 01:14:33;;;;;;;;;;;7.30;99.90;;;;;;5053493;28;19912;-79
2022/02/13 01:16:59;;;;;;;;;;;7.30;99.90;;;;;;5038804;28;19920;-79
2022/02/13 01:19:24;;;;;;;;;;;7.30;99.90;;;;;;5057244;28;19909;-80
2022/02/13 01:21:50;;;;;;;;;;;7.30;99.90;;;;;;5057082;28;20003;-79
2022/02/13 01:24:16;;;;;;;;;;;7.30;99.90;;;;;;5057123;28;19909;-79
2022/02/13 01:26:41;;;;;;;;;;;7.30;99.90;;;;;;5057080;28;19913;-80
2022/02/13 01:29:07;;;;;;;;;;;7.30;99.90;;;;;;5039406;28;20373;-79
2022/02/13 01:31:36;;;;;;;;;;;7.20;99.90;;;;;;5039045;28;19909;-79
2022/02/13 01:34:02;;;;;;;;;;;7.30;99.90;;;;;;5056907;28;20014;-80
2022/02/13 01:36:27;;;;;;;;;;;7.40;99.90;;;;;;5057065;28;19917;-79
2022/02/13 01:38:53;;;;;;;;;;;7.30;99.90;;;;;;5056930;28;19916;-79
2022/02/13 01:41:19;;;;;;;;;;;7.40;99.90;;;;;;5056802;28;19916;-79
2022/02/13 01:43:44;;;;;;;;;;;7.40;99.90;;;;;;5056675;28;19914;-80
2022/02/13 01:46:10;;;;;;;;;;;7.40;99.90;;;;;;5057003;28;20280;-79
2022/02/13 01:48:35;;;;;;;;;;;7.40;99.90;;;;;;5056743;28;19916;-80
2022/02/13 01:51:02;;;;;;;;;;;7.20;99.90;;;;;;5056694;28;19913;-79
2022/02/13 01:53:28;;;;;;;;;;;7.10;99.90;;;;;;5038623;28;19909;-80
2022/02/13 01:55:53;;;;;;;;;;;7.00;99.90;;;;;;5056891;28;19999;-79
2022/02/13 01:58:19;;;;;;;;;;;7.10;99.90;;;;;;5056528;28;19956;-80
2022/02/13 02:00:45;;;;;;;;;;;7.00;99.90;;;;;;5056517;28;19959;-79
2022/02/13 02:03:10;;;;;;;;;;;7.00;99.90;;;;;;5056313;28;19919;-80
2022/02/13 02:05:36;;;;;;;;;;;7.00;99.90;;;;;;5056358;28;19915;-80
2022/02/13 02:08:02;;;;;;;;;;;7.00;99.90;;;;;;5038422;28;19920;-80
2022/02/13 02:10:28;;;;;;;;;;;7.00;99.90;;;;;;5056302;28;19909;-80
2022/02/13 02:12:54;;;;;;;;;;;7.00;99.90;;;;;;5056231;28;19909;-80
2022/02/13 02:15:19;;;;;;;;;;;7.10;99.90;;;;;;5056167;28;19909;-79
2022/02/13 02:17:45;;;;;;;;;;;7.10;99.90;;;;;;5037776;28;19960;-80
2022/02/13 02:20:12;;;;;;;;;;;7.00;99.90;;;;;;5056067;28;19912;-79
2022/02/13 02:22:37;;;;;;;;;;;7.00;99.90;;;;;;5055977;28;19913;-80
2022/02/13 02:25:03;;;;;;;;;;;7.10;99.90;;;;;;5038086;28;20404;-80
2022/02/13 02:27:29;;;;;;;;;;;7.10;99.90;;;;;;5036911;28;19909;-80
2022/02/13 02:29:54;;;;;;;;;;;7.20;99.90;;;;;;5056005;28;19916;-80
2022/02/13 02:32:20;;;;;;;;;;;7.20;99.90;;;;;;5055954;28;19916;-79
2022/02/13 02:34:45;;;;;;;;;;;7.20;99.90;;;;;;5055759;28;19991;-80
2022/02/13 02:37:11;;;;;;;;;;;7.20;99.90;;;;;;5055969;28;19919;-79
2022/02/13 02:39:37;;;;;;;;;;;7.20;99.90;;;;;;5055718;28;20289;-80
2022/02/13 02:42:03;;;;;;;;;;;7.20;99.90;;;;;;5055601;28;19920;-80
2022/02/13 02:44:30;;;;;;;;;;;7.30;99.90;;;;;;5037663;28;19909;-80
2022/02/13 02:46:56;;;;;;;;;;;7.20;99.90;;;;;;5055565;28;19975;-79
2022/02/13 02:49:22;;;;;;;;;;;7.20;99.90;;;;;;5037981;28;20362;-80
2022/02/13 02:51:47;;;;;;;;;;;7.30;99.90;;;;;;5055563;28;19909;-79
2022/02/13 02:54:13;;;;;;;;;;;7.20;99.90;;;;;;5055421;28;19909;-80
2022/02/13 02:56:38;;;;;;;;;;;7.20;99.90;;;;;;5055460;28;19932;-79
2022/02/13 02:59:04;;;;;;;;;;;7.20;99.90;;;;;;5055507;28;19939;-80
2022/02/13 03:01:30;;;;;;;;;;;7.30;99.90;;;;;;5055252;28;19944;-79
2022/02/13 03:03:55;;;;;;;;;;;7.30;99.90;;;;;;5055275;28;19908;-79
2022/02/13 03:06:21;;;;;;;;;;;7.20;99.90;;;;;;5055203;28;19999;-79
2022/02/13 03:08:46;;;;;;;;;;;7.20;99.90;;;;;;5055150;28;19999;-80
2022/02/13 03:11:12;;;;;;;;;;;7.10;99.90;;;;;;5037277;28;20377;-79
2022/02/13 03:13:38;;;;;;;;;;;7.10;99.90;;;;;;5055218;28;19915;-80
2022/02/13 03:16:03;;;;;;;;;;;7.20;99.90;;;;;;5054926;28;19921;-79
2022/02/13 03:18:30;;;;;;;;;;;7.20;99.90;;;;;;5036848;28;20269;-80
2022/02/13 03:20:56;;;;;;;;;;;7.20;99.90;;;;;;5055144;28;19952;-80
2022/02/13 03:23:22;;;;;;;;;;;7.20;99.90;;;;;;5054818;28;20377;-79
2022/02/13 03:25:48;;;;;;;;;;;7.20;99.90;;;;;;5055149;28;20007;-79
2022/02/13 03:28:14;;;;;;;;;;;7.20;99.90;;;;;;5054747;28;19908;-80
2022/02/13 03:30:39;;;;;;;;;;;7.20;99.90;;;;;;5054760;28;19937;-80
2022/02/13 03:33:05;;;;;;;;;;;7.10;99.90;;;;;;5054901;28;19909;-80
2022/02/13 03:35:30;;;;;;;;;;;7.10;99.90;;;;;;5054967;28;19909;-80
2022/02/13 03:37:56;;;;;;;;;;;7.10;99.90;;;;;;5036336;28;19909;-79
2022/02/13 03:40:22;;;;;;;;;;;7.20;99.90;;;;;;5054579;28;19908;-80
2022/02/13 03:42:47;;;;;;;;;;;7.20;99.90;;;;;;5054421;28;19920;-80
2022/02/13 03:45:13;;;;;;;;;;;7.20;99.90;;;;;;5036654;28;19951;-79
2022/02/13 03:47:39;;;;;;;;;;;7.20;99.90;;;;;;5054434;28;20013;-80
2022/02/13 03:50:05;;;;;;;;;;;7.10;99.90;;;;;;5054464;28;20395;-80
2022/02/13 03:52:31;;;;;;;;;;;7.10;99.90;;;;;;5054275;28;19908;-80
2022/02/13 03:54:56;;;;;;;;;;;7.10;99.90;;;;;;5054274;28;19908;-80
2022/02/13 03:57:22;;;;;;;;;;;7.00;99.90;;;;;;5054708;28;20061;-80
2022/02/13 03:59:48;;;;;;;;;;;6.90;99.90;;;;;;5054194;28;19909;-79
2022/02/13 04:02:13;;;;;;;;;;;7.00;99.90;;;;;;5054202;28;19916;-79
2022/02/13 04:04:39;;;;;;;;;;;7.00;99.90;;;;;;5054195;28;20003;-79
2022/02/13 04:07:04;;;;;;;;;;;7.00;99.90;;;;;;5054111;28;20284;-79
2022/02/13 04:09:31;;;;;;;;;;;6.90;99.90;;;;;;5054489;28;19944;-79
2022/02/13 04:11:57;;;;;;;;;;;6.90;99.90;;;;;;5054055;28;19943;-79
2022/02/13 04:14:22;;;;;;;;;;;6.90;99.90;;;;;;5054003;28;20289;-80
2022/02/13 04:16:48;;;;;;;;;;;6.90;99.90;;;;;;5054143;28;19927;-79
2022/02/13 04:19:13;;;;;;;;;;;6.90;99.90;;;;;;5053913;28;19909;-80
2022/02/13 04:21:39;;;;;;;;;;;6.90;99.90;;;;;;5035921;28;20000;-79
2022/02/13 04:24:04;;;;;;;;;;;6.80;99.90;;;;;;5035952;28;19963;-80
2022/02/13 04:26:30;;;;;;;;;;;6.80;99.90;;;;;;5053777;28;20309;-80
2022/02/13 04:28:56;;;;;;;;;;;6.70;99.90;;;;;;5053762;28;20262;-80
2022/02/13 04:31:21;;;;;;;;;;;6.70;99.90;;;;;;5035780;28;19948;-80
2022/02/13 04:33:47;;;;;;;;;;;6.70;99.90;;;;;;5053940;28;19959;-80
2022/02/13 04:36:12;;;;;;;;;;;6.70;99.90;;;;;;5053722;28;19909;-79
2022/02/13 04:38:38;;;;;;;;;;;6.70;99.90;;;;;;5053764;28;19909;-79
2022/02/13 04:41:06;;;;;;;;;;;6.80;99.90;;;;;;5053626;28;19992;-80
2022/02/13 04:43:32;;;;;;;;;;;6.70;99.90;;;;;;5053552;28;19923;-80
2022/02/13 04:45:57;;;;;;;;;;;6.70;99.90;;;;;;5035697;28;19913;-80
2022/02/13 04:48:23;;;;;;;;;;;6.70;99.90;;;;;;5053700;28;19987;-80
2022/02/13 04:50:48;;;;;;;;;;;6.80;99.90;;;;;;5052879;28;20281;-79
2022/02/13 04:53:15;;;;;;;;;;;6.70;99.90;;;;;;5053408;28;19909;-79
2022/02/13 04:55:40;;;;;;;;;;;6.70;99.90;;;;;;5053667;28;19959;-79
2022/02/13 04:58:06;;;;;;;;;;;6.70;99.90;;;;;;5053427;28;20385;-79
2022/02/13 05:00:32;;;;;;;;;;;6.80;99.90;;;;;;5035526;28;20315;-80
2022/02/13 05:02:57;;;;;;;;;;;6.80;99.90;;;;;;5053730;28;19917;-80
2022/02/13 05:05:23;;;;;;;;;;;6.90;99.90;;;;;;5053371;28;20284;-79
2022/02/13 05:07:48;;;;;;;;;;;6.90;99.90;;;;;;5053425;28;19909;-79
2022/02/13 05:10:14;;;;;;;;;;;6.90;99.90;;;;;;5053381;28;19908;-80
2022/02/13 05:12:40;;;;;;;;;;;6.90;99.90;;;;;;5053532;28;19994;-79
2022/02/13 05:15:06;;;;;;;;;;;6.90;99.90;;;;;;5053011;28;19913;-79
2022/02/13 05:17:38;;;;;;;;;;;6.90;99.90;;;;;;5052888;28;19928;-80
2022/02/13 05:20:07;;;;;;;;;;;7.00;99.90;;;;;;5053247;28;19915;-79
2022/02/13 05:22:32;;;;;;;;;;;7.00;99.90;;;;;;5053126;28;19935;-79
2022/02/13 05:24:58;;;;;;;;;;;7.00;99.90;;;;;;5053774;28;20400;-79
2022/02/13 05:27:24;;;;;;;;;;;6.90;99.90;;;;;;5053153;28;19909;-80
2022/02/13 05:29:50;;;;;;;;;;;6.90;99.90;;;;;;5053426;28;20361;-80
2022/02/13 05:32:15;;;;;;;;;;;6.80;99.90;;;;;;5035249;28;19909;-79
2022/02/13 05:34:41;;;;;;;;;;;6.80;99.90;;;;;;5053123;28;19971;-80
2022/02/13 05:37:07;;;;;;;;;;;6.80;99.90;;;;;;5035237;28;20389;-80
2022/02/13 05:39:33;;;;;;;;;;;6.90;99.90;;;;;;5053172;28;20365;-79
2022/02/13 05:41:59;;;;;;;;;;;6.90;99.90;;;;;;5052974;28;20007;-79
2022/02/13 05:44:24;;;;;;;;;;;6.90;99.90;;;;;;5053010;28;19916;-80
2022/02/13 05:46:50;;;;;;;;;;;6.80;99.90;;;;;;5035063;28;19909;-79
2022/02/13 05:49:16;;;;;;;;;;;6.90;99.90;;;;;;5052948;28;19990;-80
2022/02/13 05:51:41;;;;;;;;;;;6.90;99.90;;;;;;5052976;28;19989;-79
2022/02/13 05:54:07;;;;;;;;;;;6.90;99.90;;;;;;5052907;28;19920;-79
2022/02/13 05:56:33;;;;;;;;;;;6.80;99.90;;;;;;5035111;28;20432;-80
2022/02/13 05:58:58;;;;;;;;;;;6.80;99.90;;;;;;5035063;28;19916;-79
2022/02/13 06:01:24;;;;;;;;;;;6.70;99.90;;;;;;5053793;28;19908;-79
2022/02/13 06:03:50;;;;;;;;;;;6.70;99.90;;;;;;5056455;28;19956;-80
2022/02/13 06:06:15;;;;;;;;;;;6.70;99.90;;;;;;5056429;28;20000;-80
2022/02/13 06:08:41;;;;;;;;;;;6.60;99.90;;;;;;5056351;28;19920;-79
2022/02/13 06:11:07;;;;;;;;;;;6.50;99.90;;;;;;5056278;28;19966;-79
2022/02/13 06:13:33;;;;;;;;;;;6.40;99.90;;;;;;5056222;28;20392;-80
2022/02/13 06:16:01;;;;;;;;;;;6.50;99.90;;;;;;5056011;28;19924;-79
2022/02/13 06:18:29;;;;;;;;;;;6.50;99.90;;;;;;5056262;28;19909;-79
2022/02/13 06:20:55;;;;;;;;;;;6.50;99.90;;;;;;5038209;28;19909;-79
2022/02/13 06:23:21;;;;;;;;;;;6.50;99.90;;;;;;5056119;28;19919;-79
2022/02/13 06:25:46;;;;;;;;;;;6.40;99.90;;;;;;5056071;28;19909;-80
2022/02/13 06:28:13;;;;;;;;;;;6.40;99.90;;;;;;5056004;28;20331;-80
2022/02/13 06:30:39;;;;;;;;;;;6.40;99.90;;;;;;5056429;28;19948;-79
2022/02/13 06:33:05;;;;;;;;;;;6.40;99.90;;;;;;5055890;28;19944;-79
2022/02/13 06:35:31;;;;;;;;;;;6.30;99.90;;;;;;5055995;28;20026;-80
2022/02/13 06:37:56;;;;;;;;;;;6.40;99.90;;;;;;5037897;28;19908;-79
2022/02/13 06:40:22;;;;;;;;;;;6.30;99.90;;;;;;5055737;28;19932;-79
2022/02/13 06:42:47;;;;;;;;;;;6.30;99.90;;;;;;5055899;28;19919;-79
2022/02/13 06:45:14;;;;;;;;;;;6.30;99.90;;;;;;5055655;28;19909;-79
2022/02/13 06:47:40;;;;;;;;;;;6.30;99.90;;;;;;5055671;28;19916;-79
2022/02/13 06:50:06;;;;;;;;;;;6.30;99.90;;;;;;5055758;28;19909;-79
2022/02/13 06:52:32;;;;;;;;;;;6.30;99.90;;;;;;5055639;28;20011;-79
2022/02/13 06:54:57;;;;;;;;;;;6.20;99.90;;;;;;5055810;28;19912;-79
2022/02/13 06:57:24;;;;;;;;;;;6.20;99.90;;;;;;5055460;28;19932;-79
2022/02/13 06:59:49;;;;;;;;;;;6.20;99.90;;;;;;5055402;28;19915;-79
2022/02/13 07:02:15;;;;;;;;;;;6.10;99.90;;;;;;5055309;28;20332;-79
2022/02/13 07:04:41;;;;;;;;;;;6.10;99.90;;;;;;5055311;28;19916;-79
2022/02/13 07:07:07;;;;;;;;;;;6.20;99.90;;;;;;5055322;28;20297;-79
2022/02/13 07:09:32;;;;;;;;;;;6.30;99.90;;;;;;5055233;28;19909;-79
2022/02/13 07:12:05;;;;;;;;;;;6.30;99.90;;;;;;5055134;28;20381;-79
2022/02/13 07:14:32;;;;;;;;;;;6.30;99.90;;;;;;5036552;28;20277;-79
2022/02/13 07:16:58;;;;;;;;;;;6.30;99.90;;;;;;5054942;28;19928;-79
2022/02/13 07:19:24;;;;;;;;;;;6.30;99.90;;;;;;5037042;28;20007;-79
2022/02/13 07:21:49;;;;;;;;;;;6.30;99.90;;;;;;5054823;28;19963;-79
2022/02/13 07:24:15;;;;;;;;;;;6.40;99.90;;;;;;5054912;28;19909;-79
2022/02/13 07:26:41;;;;;;;;;;;6.40;99.90;;;;;;5055166;28;19909;-79
2022/02/13 07:29:09;;;;;;;;;;;6.40;99.90;;;;;;5054797;28;19917;-79
2022/02/13 07:31:35;;;;;;;;;;;6.30;99.90;;;;;;5037151;28;19916;-80
2022/02/13 07:34:01;;;;;;;;;;;6.30;99.90;;;;;;5036818;28;19909;-80
2022/02/13 07:36:27;;;;;;;;;;;6.30;99.90;;;;;;5055219;28;19909;-79
2022/02/13 07:38:52;;;;;;;;;;;6.30;99.90;;;;;;5054617;28;19947;-79
2022/02/13 07:41:18;;;;;;;;;;;6.40;99.90;;;;;;5036720;28;19909;-79
2022/02/13 07:43:44;;;;;;;;;;;6.40;99.90;;;;;;5054452;28;20356;-79
2022/02/13 07:46:09;;;;;;;;;;;6.50;99.90;;;;;;5054742;28;19954;-79
2022/02/13 07:48:35;;;;;;;;;;;6.50;99.90;;;;;;5054637;28;19909;-79
2022/02/13 07:51:01;;;;;;;;;;;6.60;99.90;;;;;;5054496;28;20399;-79
2022/02/13 07:53:27;;;;;;;;;;;6.60;99.90;;;;;;5054360;28;19913;-79
2022/02/13 07:55:52;;;;;;;;;;;6.60;99.90;;;;;;5054680;28;19959;-79
2022/02/13 07:58:18;;;;;;;;;;;6.60;99.90;;;;;;5054284;28;20284;-79
2022/02/13 08:00:44;;;;;;;;;;;6.60;99.90;;;;;;5054219;28;19943;-79
2022/02/13 08:03:09;;;;;;;;;;;6.70;99.90;;;;;;5036285;28;19913;-80
2022/02/13 08:05:35;;;;;;;;;;;6.70;99.90;;;;;;5036261;28;20369;-79
2022/02/13 08:08:00;;;;;;;;;;;6.70;99.90;;;;;;5054107;28;19913;-79
2022/02/13 08:10:26;;;;;;;;;;;6.70;99.90;;;;;;5054102;28;19916;-80
2022/02/13 08:12:51;;;;;;;;;;;6.80;99.90;;;;;;5054048;28;19913;-79
2022/02/13 08:15:17;;;;;;;;;;;6.80;99.90;;;;;;5036128;28;19909;-79
2022/02/13 08:17:43;;;;;;;;;;;6.80;99.90;;;;;;5053560;28;20011;-79
2022/02/13 08:20:13;;;;;;;;;;;6.80;99.90;;;;;;5054093;28;19987;-79
2022/02/13 08:22:39;;;;;;;;;;;6.70;99.90;;;;;;5036195;28;19913;-79
2022/02/13 08:25:05;;;;;;;;;;;6.70;99.90;;;;;;5053081;28;19992;-79
2022/02/13 08:27:31;;;;;;;;;;;6.80;99.90;;;;;;5054051;28;19951;-79
2022/02/13 08:29:56;;;;;;;;;;;6.60;99.90;;;;;;5035822;28;19958;-79
2022/02/13 08:32:26;;;;;;;;;;;6.80;99.90;;;;;;5053790;28;19917;-79
2022/02/13 08:34:53;;;;;;;;;;;6.90;99.90;;;;;;5053886;28;19943;-80
2022/02/13 08:37:19;;;;;;;;;;;6.90;99.90;;;;;;5053709;28;19951;-79
2022/02/13 08:39:44;;;;;;;;;;;7.00;99.90;;;;;;5035754;28;19967;-79
2022/02/13 08:42:10;;;;;;;;;;;7.00;99.90;;;;;;5053593;28;19912;-79
2022/02/13 08:44:35;;;;;;;;;;;6.90;99.90;;;;;;5053622;28;19908;-79
2022/02/13 08:47:01;;;;;;;;;;;7.00;99.90;;;;;;5035655;28;19908;-79
2022/02/13 08:49:27;;;;;;;;;;;7.00;99.90;;;;;;5053945;28;19916;-80
2022/02/13 08:51:52;;;;;;;;;;;7.10;99.90;;;;;;5053816;28;20307;-79
2022/02/13 08:54:18;;;;;;;;;;;7.20;99.90;;;;;;5053480;28;19916;-79
2022/02/13 08:56:44;;;;;;;;;;;7.10;99.90;;;;;;5035623;28;19909;-79
2022/02/13 08:59:09;;;;;;;;;;;7.20;99.90;;;;;;5053438;28;19912;-79
2022/02/13 09:01:35;;;;;;;;;;;7.50;99.90;;;;;;5053465;28;20277;-79
2022/02/13 09:04:01;;;;;;;;;;;7.50;99.90;;;;;;5053346;28;19920;-79
2022/02/13 09:06:27;;;;;;;;;;;7.70;99.90;;;;;;5053413;28;19909;-80
2022/02/13 09:08:53;;;;;;;;;;;7.80;99.90;;;;;;5053442;28;19940;-79
2022/02/13 09:11:18;;;;;;;;;;;7.80;99.90;;;;;;5053353;28;19908;-79
2022/02/13 09:13:44;;;;;;;;;;;7.80;99.90;;;;;;5053706;28;19916;-80
2022/02/13 09:16:10;;;;;;;;;;;7.90;99.90;;;;;;5053161;28;19944;-79
2022/02/13 09:18:36;;;;;;;;;;;8.10;99.90;;;;;;5035399;28;19908;-79
2022/02/13 09:21:02;;;;;;;;;;;8.10;99.90;;;;;;5053328;28;20427;-80
2022/02/13 09:23:27;;;;;;;;;;;8.20;99.90;;;;;;5053167;28;19920;-80
2022/02/13 09:25:53;;;;;;;;;;;8.40;99.90;;;;;;5053190;28;19909;-79
2022/02/13 09:28:19;;;;;;;;;;;8.50;99.90;;;;;;5053213;28;19908;-80
2022/02/13 09:30:47;;;;;;;;;;;8.40;99.90;;;;;;5053140;28;19962;-80
2022/02/13 09:33:13;;;;;;;;;;;8.50;99.90;;;;;;5053289;28;19909;-79
2022/02/13 09:35:39;;;;;;;;;;;8.30;99.90;;;;;;5053195;28;20099;-80
2022/02/13 09:38:04;;;;;;;;;;;8.40;99.90;;;;;;5038857;28;20000;-79
2022/02/13 09:40:33;;;;;;;;;;;8.40;99.90;;;;;;5056864;28;19916;-79
2022/02/13 09:43:02;;;;;;;;;;;8.40;99.90;;;;;;5038836;28;20391;-80
2022/02/13 09:45:28;;;;;;;;;;;8.40;99.90;;;;;;5056921;28;19947;-80
2022/02/13 09:47:54;;;;;;;;;;;8.50;99.90;;;;;;5038893;28;20257;-79
2022/02/13 09:50:19;;;;;;;;;;;8.50;99.90;;;;;;5056719;28;19932;-79
2022/02/13 09:52:47;;;;;;;;;;;8.70;99.90;;;;;;5056804;28;19909;-80
2022/02/13 09:55:13;;;;;;;;;;;8.80;99.90;;;;;;5056761;28;20003;-80
2022/02/13 10:00:23;;;;;;;;;;;8.90;99.90;;;;;;5056311;28;19951;-79
2022/02/13 10:02:48;;;;;;;;;;;9.00;99.90;;;;;;5056432;28;19960;-80
2022/02/13 10:05:21;;;;;;;;;;;9.10;99.90;;;;;;5056784;28;19917;-80
2022/02/13 10:07:50;;;;;;;;;;;9.20;99.90;;;;;;5038294;28;19909;-79
2022/02/13 10:10:15;;;;;;;;;;;9.20;99.90;;;;;;5056440;28;19931;-79
2022/02/13 10:12:42;;;;;;;;;;;9.00;99.90;;;;;;5056297;28;20357;-79
2022/02/13 10:15:29;;;;;;;;;;;9.10;99.90;;;;;;5056231;28;20361;-78
2022/02/13 10:17:56;;;;;;;;;;;9.10;99.90;;;;;;5055781;28;19920;-79
2022/02/13 10:20:41;;;;;;;;;;;9.30;99.90;;;;;;5056160;28;19913;-79
2022/02/13 10:23:10;;;;;;;;;;;9.30;99.90;;;;;;5056388;28;20003;-78
2022/02/13 10:25:36;;;;;;;;;;;9.40;99.90;;;;;;5056115;28;19996;-79
2022/02/13 10:28:17;;;;;;;;;;;9.50;99.90;;;;;;5056079;28;19919;-79
2022/02/13 10:30:43;;;;;;;;;;;9.80;99.90;;;;;;5056122;28;19913;-79
2022/02/13 10:33:26;;;;;;;;;;;9.80;99.90;;;;;;5055903;28;19916;-78
2022/02/13 10:36:05;;;;;;;;;;;10.00;99.90;;;;;;5037957;28;20432;-78
2022/02/13 10:38:31;;;;;;;;;;;10.10;99.90;;;;;;5055808;28;20357;-78
2022/02/13 10:41:16;;;;;;;;;;;10.30;99.90;;;;;;5055785;28;19944;-78
2022/02/13 10:43:54;;;;;;;;;;;10.20;99.90;;;;;;5037781;28;19951;-78
2022/02/13 10:46:20;;;;;;;;;;;10.20;99.90;;;;;;5055667;28;19915;-79
2022/02/13 10:48:46;;;;;;;;;;;10.30;99.90;;;;;;5054541;28;19909;-78
2022/02/13 10:51:12;;;;;;;;;;;10.20;99.90;;;;;;5055565;28;19913;-79
2022/02/13 10:53:42;;;;;;;;;;;10.20;99.90;;;;;;5055404;28;19913;-78
2022/02/13 10:56:08;;;;;;;;;;;10.10;99.90;;;;;;5055471;28;20007;-78
2022/02/13 10:58:33;;;;;;;;;;;10.00;99.90;;;;;;5055444;28;19955;-78
2022/02/13 11:01:00;;;;;;;;;;;10.00;99.90;;;;;;5055055;28;19939;-79
2022/02/13 11:03:26;;;;;;;;;;;10.00;99.90;;;;;;5055271;28;19975;-79
2022/02/13 11:05:53;;;;;;;;;;;10.10;99.90;;;;;;5055227;28;20384;-79
2022/02/13 11:08:20;;;;;;;;;;;10.10;99.90;;;;;;5055243;28;19916;-78
2022/02/13 11:10:54;;;;;;;;;;;10.20;99.90;;;;;;5037280;28;19948;-78
2022/02/13 11:13:24;;;;;;;;;;;10.50;99.90;;;;;;5055312;28;19948;-79
2022/02/13 11:15:51;;;;;;;;;;;10.40;99.90;;;;;;5054872;28;20376;-79
2022/02/13 11:18:22;;;;;;;;;;;10.50;99.90;;;;;;5055526;28;20395;-79
2022/02/13 11:20:48;;;;;;;;;;;10.60;99.90;;;;;;5054975;28;19916;-78
2022/02/13 11:23:27;;;;;;;;;;;10.70;99.90;;;;;;5054882;28;20284;-79
2022/02/13 11:26:00;;;;;;;;;;;10.70;99.90;;;;;;5054962;28;19913;-79
2022/02/13 11:28:45;;;;;;;;;;;10.90;99.90;;;;;;5054929;28;19912;-78
2022/02/13 11:31:29;;;;;;;;;;;10.80;99.90;;;;;;5054782;28;19913;-79
2022/02/13 11:33:56;;;;;;;;;;;10.70;99.90;;;;;;5054741;28;20003;-79
2022/02/13 11:36:38;;;;;;;;;;;10.80;99.90;;;;;;5054590;28;19909;-79
2022/02/13 11:39:04;;;;;;;;;;;10.70;99.90;;;;;;5036545;28;19955;-78
2022/02/13 11:41:45;;;;;;;;;;;10.80;99.90;;;;;;5036768;28;20006;-79
2022/02/13 11:44:10;;;;;;;;;;;10.80;99.90;;;;;;5054642;28;19913;-78
2022/02/13 11:46:37;;;;;;;;;;;10.80;99.90;;;;;;5054527;28;20280;-78
2022/02/13 11:49:04;;;;;;;;;;;10.80;99.90;;;;;;5054439;28;19951;-78
2022/02/13 11:51:45;;;;;;;;;;;11.00;99.90;;;;;;5054621;28;19931;-78
2022/02/13 11:54:30;;;;;;;;;;;11.10;99.90;;;;;;5054315;28;19935;-80
2022/02/13 11:57:06;;;;;;;;;;;10.70;99.90;;;;;;5036346;28;19943;-80
2022/02/13 11:59:48;;;;;;;;;;;10.90;99.90;;;;;;5054120;28;20003;-80
2022/02/13 12:02:37;;;;;;;;;;;11.00;99.90;;;;;;5054113;28;19913;-80
2022/02/13 12:05:02;;;;;;;;;;;10.80;99.90;;;;;;5054059;28;19916;-79
2022/02/13 12:07:43;;;;;;;;;;;11.00;99.90;;;;;;5054159;28;19908;-79
2022/02/13 12:10:09;;;;;;;;;;;11.00;99.90;;;;;;5054247;28;19909;-79
2022/02/13 12:12:35;;;;;;;;;;;10.90;99.90;;;;;;5053982;28;19909;-79
2022/02/13 12:15:01;;;;;;;;;;;11.10;99.90;;;;;;5053934;28;20427;-79
2022/02/13 12:17:28;;;;;;;;;;;11.00;99.90;;;;;;5053600;28;19967;-78
2022/02/13 12:20:01;;;;;;;;;;;11.00;99.90;;;;;;5054276;28;19932;-78
2022/02/13 12:22:27;;;;;;;;;;;11.00;99.90;;;;;;5053955;28;19913;-78
2022/02/13 12:24:53;;;;;;;;;;;10.80;99.90;;;;;;5054007;28;19913;-78
2022/02/13 12:27:21;;;;;;;;;;;10.80;99.90;;;;;;5053827;28;19916;-78
2022/02/13 12:29:54;;;;;;;;;;;10.70;99.90;;;;;;5053990;28;20369;-78
2022/02/13 12:32:22;;;;;;;;;;;10.80;99.90;;;;;;5035894;28;19954;-78
2022/02/13 12:34:49;;;;;;;;;;;10.70;99.90;;;;;;5053815;28;20293;-78
2022/02/13 12:37:14;;;;;;;;;;;10.60;99.90;;;;;;5053680;28;20008;-78
2022/02/13 12:39:40;;;;;;;;;;;10.50;99.90;;;;;;5053643;28;20028;-78
2022/02/13 12:42:06;;;;;;;;;;;10.40;99.90;;;;;;5053738;28;19908;-79
2022/02/13 12:44:50;;;;;;;;;;;10.40;99.90;;;;;;5053612;28;20316;-81
2022/02/13 12:47:15;;;;;;;;;;;10.30;99.90;;;;;;5035622;28;19912;-83
2022/02/13 12:49:41;;;;;;;;;;;10.30;99.90;;;;;;5053553;28;19916;-79
2022/02/13 12:52:06;;;;;;;;;;;10.30;99.90;;;;;;5053507;28;20422;-81
2022/02/13 12:54:32;;;;;;;;;;;10.20;99.90;;;;;;5053464;28;19920;-79
2022/02/13 12:57:15;;;;;;;;;;;10.20;99.90;;;;;;5053659;28;20317;-80
2022/02/13 12:59:41;;;;;;;;;;;10.20;99.90;;;;;;5053904;28;19909;-77
2022/02/13 13:02:19;;;;;;;;;;;10.20;99.90;;;;;;5053486;28;19951;-81
2022/02/13 13:04:45;;;;;;;;;;;10.10;99.90;;;;;;5053555;28;19959;-81
2022/02/13 13:07:21;;;;;;;;;;;10.10;99.90;;;;;;5035503;28;19909;-80
2022/02/13 13:09:47;;;;;;;;;;;10.10;99.90;;;;;;5053350;28;19908;-78
2022/02/13 13:12:16;;;;;;;;;;;10.00;99.90;;;;;;5055884;28;20027;-79
2022/02/13 13:14:42;;;;;;;;;;;10.00;99.90;;;;;;5057501;28;19951;-81
2022/02/13 13:17:08;;;;;;;;;;;10.20;99.90;;;;;;5057143;28;19925;-78
2022/02/13 13:19:34;;;;;;;;;;;10.20;99.90;;;;;;5057298;28;19909;-79
2022/02/13 13:22:15;;;;;;;;;;;10.20;99.90;;;;;;5057321;28;20381;-79
2022/02/13 13:24:43;;;;;;;;;;;10.20;99.90;;;;;;5057373;28;19909;-80
2022/02/13 13:27:16;;;;;;;;;;;10.20;99.90;;;;;;5057129;28;20369;-83
2022/02/13 13:29:43;;;;;;;;;;;10.10;99.90;;;;;;5057503;28;19909;-80
2022/02/13 13:32:10;;;;;;;;;;;10.30;99.90;;;;;;5039145;28;19916;-78
2022/02/13 13:34:35;;;;;;;;;;;10.20;99.90;;;;;;5057096;28;19944;-80
2022/02/13 13:37:21;;;;;;;;;;;10.20;99.90;;;;;;5039103;28;19970;-83
2022/02/13 13:40:05;;;;;;;;;;;10.20;99.90;;;;;;5057019;28;20323;-79
2022/02/13 13:42:36;;;;;;;;;;;10.40;99.90;;;;;;5056812;28;19913;-78
2022/02/13 13:45:01;;;;;;;;;;;10.40;99.90;;;;;;5057264;28;20373;-81
2022/02/13 13:47:27;;;;;;;;;;;10.40;99.90;;;;;;5056904;28;19915;-80
2022/02/13 13:49:52;;;;;;;;;;;10.40;99.90;;;;;;5056760;28;19909;-81
2022/02/13 13:52:18;;;;;;;;;;;10.30;99.90;;;;;;5056927;28;19915;-80
2022/02/13 13:54:44;;;;;;;;;;;10.30;99.90;;;;;;5038685;28;20007;-79
2022/02/13 13:57:09;;;;;;;;;;;10.20;99.90;;;;;;5056855;28;19915;-78
2022/02/13 13:59:35;;;;;;;;;;;10.00;99.90;;;;;;5038707;28;19991;-79
2022/02/13 14:02:00;;;;;;;;;;;10.10;99.90;;;;;;5056609;28;19974;-79
2022/02/13 14:04:26;;;;;;;;;;;10.20;99.90;;;;;;5056502;28;20431;-78
2022/02/13 14:06:52;;;;;;;;;;;10.30;99.90;;;;;;5056624;28;19919;-78
2022/02/13 14:09:17;;;;;;;;;;;10.30;99.90;;;;;;5056409;28;19909;-80
2022/02/13 14:11:43;;;;;;;;;;;10.30;99.90;;;;;;5038565;28;20400;-78
2022/02/13 14:14:10;;;;;;;;;;;10.30;99.90;;;;;;5056295;28;19909;-79
2022/02/13 14:16:35;;;;;;;;;;;10.20;99.90;;;;;;5056098;28;19928;-79
2022/02/13 14:19:01;;;;;;;;;;;10.20;99.90;;;;;;5056245;28;19909;-80
2022/02/13 14:21:27;;;;;;;;;;;10.10;99.90;;;;;;5056275;28;19909;-83
2022/02/13 14:23:52;;;;;;;;;;;10.20;99.90;;;;;;5038072;28;19955;-79
2022/02/13 14:26:18;;;;;;;;;;;10.10;99.90;;;;;;5056109;28;19916;-80
2022/02/13 14:28:44;;;;;;;;;;;10.10;99.90;;;;;;5056054;28;20361;-79